Time;durP1;ratioP1;P1;durP2;ratioP2;P2;SDS_P1;SDS_P2;PMS_P1;PMS_P2;Temp;Humidity;BMP_temperature;BMP_pressure;BME280_temperature;BME280_humidity;BME280_pressure;Samples;Min_cycle;Max_cycle;Signal;HPM_P1;HPM_P2
2023/09/30 00:00:23;;;;;;;19.38;8.15;;;;;;;12.40;98.13;102450.56;5088031;28;20024;-68
2023/09/30 00:02:50;;;;;;;17.42;7.93;;;;;;;12.36;98.06;102451.84;5095777;28;20468;-69
2023/09/30 00:05:15;;;;;;;17.23;8.48;;;;;;;12.39;98.15;102452.41;5089860;28;20473;-69
2023/09/30 00:07:40;;;;;;;16.85;8.75;;;;;;;12.44;98.18;102456.47;5089216;28;20028;-69
2023/09/30 00:10:06;;;;;;;17.65;8.13;;;;;;;12.34;98.01;102446.66;5090864;28;20028;-69
2023/09/30 00:12:32;;;;;;;17.30;7.95;;;;;;;12.37;97.76;102453.53;5089839;28;20038;-69
2023/09/30 00:14:57;;;;;;;13.63;7.72;;;;;;;12.33;98.09;102468.13;5080030;28;20028;-69
2023/09/30 00:17:22;;;;;;;19.13;8.45;;;;;;;12.33;98.20;102460.13;5097263;28;20103;-69
2023/09/30 00:19:48;;;;;;;19.92;8.60;;;;;;;12.31;97.78;102465.59;5087478;28;20138;-69
2023/09/30 00:22:13;;;;;;;16.77;8.90;;;;;;;12.26;97.83;102457.19;5084864;28;20065;-69
2023/09/30 00:24:38;;;;;;;15.80;8.98;;;;;;;12.26;98.26;102456.34;5088293;28;20047;-69
2023/09/30 00:27:04;;;;;;;22.23;9.43;;;;;;;12.30;98.15;102465.75;5077446;28;20106;-69
2023/09/30 00:29:29;;;;;;;18.70;9.32;;;;;;;12.28;98.53;102465.88;5084015;28;20043;-69
2023/09/30 00:31:54;;;;;;;16.15;9.27;;;;;;;12.25;98.68;102460.84;5087874;28;20024;-69
2023/09/30 00:34:19;;;;;;;18.08;10.48;;;;;;;12.23;98.85;102464.63;5091812;28;20036;-68
2023/09/30 00:36:45;;;;;;;20.23;10.25;;;;;;;12.21;98.95;102471.94;5092998;28;20059;-69
2023/09/30 00:39:10;;;;;;;16.85;9.77;;;;;;;12.20;99.88;102459.59;5086044;28;20405;-69
2023/09/30 00:41:38;;;;;;;23.20;10.80;;;;;;;12.20;99.62;102478.25;5088905;28;20377;-69
2023/09/30 00:44:03;;;;;;;17.88;10.27;;;;;;;12.16;99.99;102471.50;5085463;28;20035;-69
2023/09/30 00:46:31;;;;;;;17.20;10.52;;;;;;;12.14;100.00;102478.78;5092712;28;20432;-69
2023/09/30 00:48:58;;;;;;;21.45;10.82;;;;;;;12.12;100.00;102486.91;5094630;28;20035;-69
2023/09/30 00:51:23;;;;;;;21.10;10.85;;;;;;;12.09;100.00;102480.03;5091149;28;20473;-69
2023/09/30 00:53:54;;;;;;;17.65;10.20;;;;;;;12.14;100.00;102471.63;5093403;28;20061;-69
2023/09/30 00:56:23;;;;;;;16.88;9.43;;;;;;;12.14;100.00;102463.63;5093804;28;20120;-69
2023/09/30 00:58:51;;;;;;;16.95;9.70;;;;;;;12.15;100.00;102464.50;5094355;28;20032;-69
2023/09/30 01:01:18;;;;;;;16.67;10.25;;;;;;;12.17;100.00;102465.22;5098705;28;20043;-69
2023/09/30 01:03:44;;;;;;;18.73;10.02;;;;;;;12.19;100.00;102465.91;5096300;28;20109;-69
2023/09/30 01:06:09;;;;;;;20.73;10.05;;;;;;;12.18;100.00;102482.88;5094298;28;20050;-69
2023/09/30 01:08:35;;;;;;;20.75;10.23;;;;;;;12.19;99.93;102487.22;5097298;28;20023;-69
2023/09/30 01:11:00;;;;;;;15.55;9.50;;;;;;;12.22;100.00;102486.94;5099279;28;20085;-69
2023/09/30 01:13:36;;;;;;;15.00;9.88;;;;;;;12.24;99.87;102490.28;5094488;28;20475;-69
2023/09/30 01:16:05;;;;;;;16.25;10.07;;;;;;;12.22;99.94;102479.78;5095217;28;20081;-68
2023/09/30 01:18:31;;;;;;;;;;;;;;;12.33;99.79;102476.09;5095377;28;20027;-69
2023/09/30 01:20:56;;;;;;;15.68;9.73;;;;;;;12.26;99.56;102496.31;5093623;28;20030;-69
2023/09/30 01:23:21;;;;;;;18.90;10.05;;;;;;;12.23;99.42;102508.09;5092951;28;20024;-67
2023/09/30 01:25:47;;;;;;;20.23;10.30;;;;;;;12.21;99.19;102509.22;5092844;28;20058;-69
2023/09/30 01:28:14;;;;;;;18.00;10.90;;;;;;;12.23;99.43;102517.91;5089755;28;20027;-69
2023/09/30 01:30:39;;;;;;;23.83;12.30;;;;;;;12.22;99.54;102521.56;5097965;28;20030;-68
2023/09/30 01:33:05;;;;;;;18.88;11.38;;;;;;;12.14;100.00;102508.91;5105651;28;20027;-69
2023/09/30 01:35:30;;;;;;;19.92;11.02;;;;;;;12.08;99.93;102512.13;5094337;28;20035;-68
2023/09/30 01:37:55;;;;;;;21.85;12.07;;;;;;;12.04;99.72;102508.91;5092627;28;20047;-68
2023/09/30 01:40:21;;;;;;;18.33;11.90;;;;;;;11.99;100.00;102508.50;5096095;28;20024;-68
2023/09/30 01:42:46;;;;;;;19.98;12.48;;;;;;;11.96;100.00;102516.78;5100676;28;20016;-69
2023/09/30 01:45:12;;;;;;;17.50;12.10;;;;;;;11.92;100.00;102518.03;5091985;28;20028;-69
2023/09/30 01:47:37;;;;;;;20.23;12.98;;;;;;;11.90;100.00;102498.69;5100552;28;20020;-69
2023/09/30 01:50:02;;;;;;;24.02;13.45;;;;;;;11.89;100.00;102497.00;5105205;28;20385;-68
2023/09/30 01:52:27;;;;;;;22.35;13.02;;;;;;;11.90;100.00;102489.88;5097308;28;20066;-69
2023/09/30 01:54:54;;;;;;;21.40;13.75;;;;;;;11.89;100.00;102496.16;5087838;28;20028;-69
2023/09/30 01:57:19;;;;;;;25.15;14.32;;;;;;;11.87;100.00;102488.31;5084942;28;20103;-69
2023/09/30 01:59:44;;;;;;;23.02;13.35;;;;;;;11.87;100.00;102490.97;5097958;28;20546;-69
2023/09/30 02:02:10;;;;;;;23.23;14.25;;;;;;;11.86;100.00;102485.81;5094845;28;20030;-69
2023/09/30 02:04:35;;;;;;;25.27;14.68;;;;;;;11.83;100.00;102486.03;5091218;28;20429;-69
2023/09/30 02:07:00;;;;;;;20.45;13.90;;;;;;;11.79;100.00;102481.00;5095926;28;20020;-69
2023/09/30 02:09:25;;;;;;;28.83;16.25;;;;;;;11.80;100.00;102484.50;5092329;28;20028;-69
2023/09/30 02:11:51;;;;;;;24.05;14.85;;;;;;;11.79;100.00;102485.50;5093404;28;20663;-68
2023/09/30 02:14:16;;;;;;;27.75;14.95;;;;;;;11.77;100.00;102501.56;5093409;28;20096;-69
2023/09/30 02:16:41;;;;;;;25.27;15.73;;;;;;;11.75;100.00;102508.00;5093721;28;20668;-69
2023/09/30 02:19:06;;;;;;;25.55;15.30;;;;;;;11.71;100.00;102503.94;5095405;28;20065;-69
2023/09/30 02:21:32;;;;;;;23.00;14.68;;;;;;;11.73;100.00;102509.97;5100688;28;20027;-69
2023/09/30 02:23:57;;;;;;;30.33;15.43;;;;;;;11.72;100.00;102501.13;5087493;28;20401;-69
2023/09/30 02:26:25;;;;;;;23.08;15.02;;;;;;;11.74;100.00;102504.50;5088502;28;20035;-69
2023/09/30 02:28:51;;;;;;;26.13;15.65;;;;;;;11.75;100.00;102494.69;5090023;28;20035;-69
2023/09/30 02:31:17;;;;;;;26.48;14.85;;;;;;;11.75;100.00;102498.19;5093405;28;20084;-69
2023/09/30 02:33:44;;;;;;;26.80;14.80;;;;;;;11.78;100.00;102494.44;5091720;28;20023;-69
2023/09/30 02:36:09;;;;;;;21.50;14.75;;;;;;;11.80;100.00;102500.47;5093777;28;20027;-69
2023/09/30 02:38:37;;;;;;;28.42;15.32;;;;;;;11.81;100.00;102496.00;5086832;28;20668;-69
2023/09/30 02:41:02;;;;;;;20.42;14.25;;;;;;;11.81;100.00;102507.47;5091868;28;20031;-69
2023/09/30 02:43:28;;;;;;;24.00;15.20;;;;;;;11.81;100.00;102498.66;5084552;28;20028;-69
2023/09/30 02:45:53;;;;;;;22.73;14.52;;;;;;;11.78;100.00;102495.28;5080899;28;20455;-69
2023/09/30 02:48:18;;;;;;;25.65;14.82;;;;;;;11.75;100.00;102489.38;5100523;28;20034;-70
2023/09/30 02:50:46;;;;;;;21.23;14.70;;;;;;;11.79;100.00;102491.66;5081354;28;20035;-69
2023/09/30 02:53:15;;;;;;;23.90;14.45;;;;;;;11.80;100.00;102484.50;5086424;28;20116;-69
2023/09/30 02:55:41;;;;;;;23.47;15.03;;;;;;;11.81;100.00;102478.19;5082444;28;20023;-69
2023/09/30 02:58:08;;;;;;;22.92;14.35;;;;;;;11.86;100.00;102485.81;5083256;28;20899;-71
2023/09/30 03:00:33;;;;;;;24.17;14.45;;;;;;;11.86;100.00;102475.16;5090584;28;20027;-69
2023/09/30 03:03:01;;;;;;;22.20;14.95;;;;;;;11.89;100.00;102482.84;5088163;28;20028;-68
2023/09/30 03:05:27;;;;;;;22.50;14.18;;;;;;;11.87;100.00;102485.66;5093147;28;20568;-69
2023/09/30 03:07:54;;;;;;;23.90;14.52;;;;;;;11.88;100.00;102490.00;5093090;28;20015;-69
2023/09/30 03:10:20;;;;;;;23.98;14.07;;;;;;;11.90;100.00;102505.84;5086833;28;20024;-69
2023/09/30 03:12:51;;;;;;;25.60;14.52;;;;;;;11.89;100.00;102501.50;5095382;28;20035;-69
2023/09/30 03:15:17;;;;;;;20.35;14.05;;;;;;;11.81;100.00;102482.69;5079428;28;20481;-69
2023/09/30 03:17:43;;;;;;;30.45;15.05;;;;;;;11.85;100.00;102497.41;5093073;28;20027;-69
2023/09/30 03:20:12;;;;;;;24.17;14.25;;;;;;;11.82;100.00;102503.84;5091285;28;20031;-69
2023/09/30 03:22:42;;;;;;;20.60;13.80;;;;;;;11.81;100.00;102490.66;5089375;28;20411;-69
2023/09/30 03:25:12;;;;;;;26.02;14.02;;;;;;;11.75;100.00;102482.22;5090256;28;20028;-69
2023/09/30 03:27:38;;;;;;;21.80;14.50;;;;;;;11.77;100.00;102474.09;5088132;28;20512;-69
2023/09/30 03:30:08;;;;;;;23.55;14.65;;;;;;;11.77;100.00;102466.13;5086981;28;20410;-69
2023/09/30 03:32:37;;;;;;;21.00;13.88;;;;;;;11.76;100.00;102473.28;5100363;28;20056;-69
2023/09/30 03:35:05;;;;;;;;;;;;;;;11.79;100.00;102480.16;5095488;28;20636;-69
2023/09/30 03:37:31;;;;;;;28.70;15.27;;;;;;;11.77;100.00;102482.94;5089911;28;19919;-69
2023/09/30 03:39:56;;;;;;;23.63;15.15;;;;;;;11.79;100.00;102483.66;5088773;28;20032;-69
2023/09/30 03:42:22;;;;;;;26.95;14.93;;;;;;;11.80;100.00;102487.16;5088288;28;20020;-69
2023/09/30 03:44:48;;;;;;;22.25;14.77;;;;;;;11.74;100.00;102483.22;5089188;28;20414;-69
2023/09/30 03:47:15;;;;;;;23.10;15.02;;;;;;;11.74;100.00;102482.38;5091030;28;20028;-69
2023/09/30 03:49:40;;;;;;;21.60;13.98;;;;;;;11.72;100.00;102487.00;5096875;28;20449;-68
2023/09/30 03:52:06;;;;;;;27.20;15.45;;;;;;;11.69;100.00;102473.97;5090621;28;20024;-69
2023/09/30 03:54:31;;;;;;;28.13;15.07;;;;;;;11.68;100.00;102469.63;5102274;28;21349;-69
2023/09/30 03:56:57;;;;;;;24.52;14.25;;;;;;;11.66;100.00;102474.25;5094359;28;20396;-69
2023/09/30 03:59:23;;;;;;;24.98;14.68;;;;;;;11.65;100.00;102469.91;5088990;28;20107;-69
2023/09/30 04:01:48;;;;;;;21.02;14.57;;;;;;;11.65;100.00;102472.56;5093351;28;20107;-69
2023/09/30 04:04:13;;;;;;;24.13;14.43;;;;;;;11.67;100.00;102481.25;5096493;28;20111;-69
2023/09/30 04:06:39;;;;;;;24.00;15.40;;;;;;;11.67;100.00;102487.41;5088121;28;20055;-69
2023/09/30 04:09:10;;;;;;;22.50;15.13;;;;;;;11.67;100.00;102486.56;5093754;28;20035;-69
2023/09/30 04:11:36;;;;;;;23.80;15.70;;;;;;;11.67;100.00;102483.91;5084976;28;20495;-69
2023/09/30 04:14:02;;;;;;;26.25;15.48;;;;;;;11.68;100.00;102482.94;5084634;28;20557;-69
2023/09/30 04:16:29;;;;;;;24.98;15.60;;;;;;;11.68;100.00;102474.94;5096867;28;20471;-69
2023/09/30 04:18:55;;;;;;;32.42;16.95;;;;;;;11.69;100.00;102484.59;5086517;28;20020;-70
2023/09/30 04:21:20;;;;;;;24.40;15.43;;;;;;;11.69;100.00;102481.94;5094283;28;20031;-69
2023/09/30 04:23:46;;;;;;;29.27;15.70;;;;;;;11.68;100.00;102472.28;5087297;28;20092;-69
2023/09/30 04:26:11;;;;;;;27.33;16.85;;;;;;;11.70;100.00;102478.31;5087339;28;20044;-69
2023/09/30 04:28:37;;;;;;;30.80;16.88;;;;;;;11.72;100.00;102482.50;5085268;28;20039;-69
2023/09/30 04:31:03;;;;;;;27.50;15.77;;;;;;;11.69;100.00;102485.44;5085739;28;20030;-69
2023/09/30 04:33:28;;;;;;;32.10;16.73;;;;;;;11.68;100.00;102488.25;5096427;28;20438;-69
2023/09/30 04:35:53;;;;;;;29.08;16.40;;;;;;;11.67;100.00;102482.09;5087280;28;20028;-69
2023/09/30 04:38:19;;;;;;;25.88;15.90;;;;;;;11.66;100.00;102479.56;5087195;28;20788;-69
2023/09/30 04:40:48;;;;;;;27.30;16.40;;;;;;;11.63;100.00;102482.50;5090402;28;20141;-70
2023/09/30 04:43:14;;;;;;;25.83;16.08;;;;;;;11.63;100.00;102490.50;5100727;28;20049;-69
2023/09/30 04:45:40;;;;;;;26.15;16.95;;;;;;;11.58;100.00;102498.88;5094858;28;20136;-69
2023/09/30 04:48:05;;;;;;;25.45;15.82;;;;;;;11.57;100.00;102507.00;5099963;28;20024;-69
2023/09/30 04:50:31;;;;;;;30.00;16.92;;;;;;;11.54;100.00;102500.09;5089265;28;20077;-69
2023/09/30 04:52:57;;;;;;;31.20;17.35;;;;;;;11.53;100.00;102503.75;5091952;28;20508;-69
2023/09/30 04:55:23;;;;;;;34.08;17.48;;;;;;;11.54;100.00;102496.59;5101369;28;20051;-69
2023/09/30 04:57:49;;;;;;;31.35;17.38;;;;;;;11.52;100.00;102491.41;5080908;28;20611;-70
2023/09/30 05:00:16;;;;;;;29.52;16.98;;;;;;;11.49;100.00;102500.53;5075693;28;20028;-69
2023/09/30 05:02:44;;;;;;;29.38;18.08;;;;;;;11.49;100.00;102508.50;5083182;28;20024;-69
2023/09/30 05:05:10;;;;;;;31.95;17.77;;;;;;;11.43;100.00;102497.56;5077729;28;20017;-69
2023/09/30 05:07:36;;;;;;;28.77;17.75;;;;;;;11.47;100.00;102510.47;5090028;28;20615;-69
2023/09/30 05:10:05;;;;;;;28.27;17.05;;;;;;;11.46;100.00;102515.91;5085769;28;20032;-69
2023/09/30 05:12:30;;;;;;;26.88;18.20;;;;;;;11.42;100.00;102507.38;5086408;28;20020;-69
2023/09/30 05:14:56;;;;;;;30.48;17.33;;;;;;;11.41;100.00;102513.66;5082779;28;20043;-69
2023/09/30 05:17:21;;;;;;;26.33;17.00;;;;;;;11.41;100.00;102515.47;5084886;28;20664;-69
2023/09/30 05:19:48;;;;;;;31.77;17.83;;;;;;;11.39;100.00;102507.63;5080286;28;20028;-70
2023/09/30 05:22:13;;;;;;;31.73;17.35;;;;;;;11.40;100.00;102509.31;5082072;28;20117;-69
2023/09/30 05:24:38;;;;;;;31.27;17.98;;;;;;;11.42;100.00;102514.50;5094535;28;20034;-70
2023/09/30 05:27:03;;;;;;;32.13;17.95;;;;;;;11.40;100.00;102514.66;5084817;28;20031;-70
2023/09/30 05:29:29;;;;;;;33.47;19.42;;;;;;;11.38;100.00;102510.44;5084766;28;20028;-69
2023/09/30 05:31:54;;;;;;;29.90;17.33;;;;;;;11.39;100.00;102514.78;5088627;28;20059;-70
2023/09/30 05:34:20;;;;;;;33.63;18.02;;;;;;;11.38;100.00;102516.59;5089945;28;20031;-69
2023/09/30 05:36:45;;;;;;;32.10;17.58;;;;;;;11.38;100.00;102521.06;5087276;28;20392;-69
2023/09/30 05:39:10;;;;;;;31.25;17.00;;;;;;;11.42;100.00;102525.16;5089527;28;20020;-69
2023/09/30 05:41:37;;;;;;;28.35;16.55;;;;;;;11.43;100.00;102529.50;5098625;28;20047;-70
2023/09/30 05:44:03;;;;;;;32.13;17.48;;;;;;;11.42;100.00;102531.31;5098249;28;20549;-70
2023/09/30 05:46:30;;;;;;;32.20;18.05;;;;;;;11.40;100.00;102535.94;5097816;28;20108;-69
2023/09/30 05:48:55;;;;;;;29.65;16.80;;;;;;;11.40;100.00;102535.09;5093738;28;20089;-69
2023/09/30 05:51:21;;;;;;;30.17;17.15;;;;;;;11.40;100.00;102532.41;5088927;28;20039;-69
2023/09/30 05:53:48;;;;;;;32.67;18.02;;;;;;;11.42;100.00;102520.66;5090155;28;20043;-69
2023/09/30 05:56:14;;;;;;;28.58;17.27;;;;;;;11.45;100.00;102525.72;5096580;28;20024;-69
2023/09/30 05:58:40;;;;;;;32.33;17.33;;;;;;;11.45;100.00;102531.03;5081677;28;20094;-69
2023/09/30 06:01:18;;;;;;;30.50;16.63;;;;;;;11.43;100.00;102542.78;5085403;28;20039;-69
2023/09/30 06:03:46;;;;;;;28.27;17.20;;;;;;;11.40;100.00;102549.22;5087423;28;20053;-69
2023/09/30 06:06:12;;;;;;;30.52;16.67;;;;;;;11.36;100.00;102547.81;5088727;28;20416;-69
2023/09/30 06:08:38;;;;;;;32.85;17.45;;;;;;;11.36;100.00;102537.19;5089390;28;20546;-69
2023/09/30 06:11:03;;;;;;;30.25;17.88;;;;;;;11.35;100.00;102539.97;5090763;28;20077;-69
2023/09/30 06:13:31;;;;;;;30.05;17.45;;;;;;;11.31;100.00;102528.75;5090561;28;20082;-69
2023/09/30 06:15:56;;;;;;;28.33;17.13;;;;;;;11.32;100.00;102534.91;5090842;28;20398;-69
2023/09/30 06:18:22;;;;;;;30.88;17.67;;;;;;;11.28;100.00;102534.34;5098423;28;20045;-69
2023/09/30 06:20:48;;;;;;;31.75;16.85;;;;;;;11.28;100.00;102539.66;5103144;28;20067;-69
2023/09/30 06:23:14;;;;;;;34.38;17.77;;;;;;;11.30;100.00;102539.53;5090270;28;20378;-69
2023/09/30 06:25:39;;;;;;;30.83;18.13;;;;;;;11.32;100.00;102532.25;5086297;28;20042;-70
2023/09/30 06:28:05;;;;;;;36.22;18.25;;;;;;;11.34;100.00;102528.50;5086949;28;20040;-70
2023/09/30 06:30:32;;;;;;;31.27;17.83;;;;;;;11.37;100.00;102522.06;5080701;28;20119;-70
2023/09/30 06:32:59;;;;;;;28.17;17.20;;;;;;;11.37;100.00;102532.69;5097359;28;20055;-69
2023/09/30 06:35:26;;;;;;;31.48;16.95;;;;;;;11.35;100.00;102529.34;5100985;28;20020;-69
2023/09/30 06:37:51;;;;;;;33.05;18.00;;;;;;;11.34;100.00;102536.47;5101597;28;20020;-69
2023/09/30 06:40:17;;;;;;;34.38;18.20;;;;;;;11.36;100.00;102537.19;5105585;28;20096;-70
2023/09/30 06:42:42;;;;;;;27.50;17.38;;;;;;;11.38;100.00;102529.06;5102357;28;20024;-69
2023/09/30 06:45:09;;;;;;;31.02;18.27;;;;;;;11.43;100.00;102542.78;5096410;28;20024;-69
2023/09/30 06:47:36;;;;;;;37.00;18.40;;;;;;;11.46;100.00;102545.19;5104884;28;20027;-70
2023/09/30 06:50:09;;;;;;;34.97;18.77;;;;;;;11.48;100.00;102554.72;5087134;28;20099;-70
2023/09/30 06:52:37;;;;;;;34.08;18.83;;;;;;;11.55;100.00;102563.00;5092424;28;20575;-70
2023/09/30 06:55:04;;;;;;;35.13;18.88;;;;;;;11.61;100.00;102561.63;5092016;28;20026;-70
2023/09/30 06:57:31;;;;;;;39.30;18.67;;;;;;;11.66;100.00;102575.38;5091138;28;20421;-70
2023/09/30 06:59:56;;;;;;;36.85;18.48;;;;;;;11.71;100.00;102591.78;5079203;28;20111;-70
2023/09/30 07:02:21;;;;;;;31.98;19.42;;;;;;;11.76;100.00;102601.03;5092767;28;20102;-69
2023/09/30 07:04:48;;;;;;;41.88;18.83;;;;;;;11.79;100.00;102598.13;5088836;28;20382;-70
2023/09/30 07:07:15;;;;;;;35.55;18.77;;;;;;;11.86;100.00;102581.63;5092702;28;20058;-70
2023/09/30 07:09:43;;;;;;;37.60;18.70;;;;;;;11.91;100.00;102590.03;5085543;28;20023;-70
2023/09/30 07:12:09;;;;;;;34.67;17.85;;;;;;;11.92;100.00;102592.56;5101295;28;20057;-70
2023/09/30 07:14:34;;;;;;;36.65;17.27;;;;;;;11.94;100.00;102597.75;5079187;28;20382;-70
2023/09/30 07:16:59;;;;;;;36.05;18.42;;;;;;;11.93;100.00;102588.94;5088173;28;20034;-69
2023/09/30 07:19:24;;;;;;;37.85;17.77;;;;;;;12.00;100.00;102586.56;5094568;28;20012;-70
2023/09/30 07:21:50;;;;;;;32.95;17.88;;;;;;;12.07;100.00;102596.50;5092352;28;20020;-70
2023/09/30 07:24:15;;;;;;;32.92;18.48;;;;;;;12.09;100.00;102604.38;5093850;28;20030;-71
2023/09/30 07:26:40;;;;;;;36.83;18.75;;;;;;;12.10;100.00;102612.22;5104009;28;20055;-69
2023/09/30 07:29:06;;;;;;;37.63;19.73;;;;;;;12.19;100.00;102620.38;5092611;28;20028;-70
2023/09/30 07:31:35;;;;;;;35.40;19.23;;;;;;;12.29;100.00;102637.22;5095862;28;20051;-70
2023/09/30 07:34:01;;;;;;;39.30;20.10;;;;;;;12.36;100.00;102639.19;5100378;28;20012;-70
2023/09/30 07:36:26;;;;;;;39.55;19.40;;;;;;;12.41;100.00;102638.75;5095366;28;20130;-70
2023/09/30 07:38:52;;;;;;;39.92;20.05;;;;;;;12.51;100.00;102646.78;5089375;28;20517;-70
2023/09/30 07:41:18;;;;;;;36.13;20.15;;;;;;;12.56;100.00;102653.38;5096092;28;20036;-69
2023/09/30 07:43:43;;;;;;;37.63;19.48;;;;;;;12.64;100.00;102648.19;5101507;28;20016;-70
2023/09/30 07:46:09;;;;;;;38.05;19.83;;;;;;;12.70;100.00;102652.09;5098815;28;20016;-70
2023/09/30 07:48:35;;;;;;;37.50;19.45;;;;;;;12.76;100.00;102658.72;5085501;28;20031;-70
2023/09/30 07:51:00;;;;;;;38.08;19.75;;;;;;;12.82;100.00;102647.50;5083287;28;20044;-70
2023/09/30 07:53:26;;;;;;;36.65;19.13;;;;;;;12.89;100.00;102643.28;5078163;28;20032;-70
2023/09/30 07:55:52;;;;;;;41.08;19.50;;;;;;;12.94;100.00;102635.69;5105644;28;20031;-70
2023/09/30 07:58:17;;;;;;;35.80;18.85;;;;;;;12.98;100.00;102634.41;5087357;28;20032;-70
2023/09/30 08:00:43;;;;;;;37.08;19.13;;;;;;;12.97;100.00;102620.22;5092693;28;20047;-70
2023/09/30 08:03:08;;;;;;;40.10;18.25;;;;;;;13.09;100.00;102633.44;5102910;28;20022;-70
2023/09/30 08:05:33;;;;;;;39.13;19.05;;;;;;;13.12;100.00;102630.47;5085616;28;20445;-70
2023/09/30 08:07:58;;;;;;;38.38;18.42;;;;;;;13.19;100.00;102627.13;5088576;28;20126;-70
2023/09/30 08:10:24;;;;;;;37.40;18.02;;;;;;;13.24;100.00;102643.53;5092089;28;20028;-70
2023/09/30 08:12:50;;;;;;;34.03;17.00;;;;;;;13.26;100.00;102627.38;5100759;28;20031;-70
2023/09/30 08:15:15;;;;;;;38.03;18.27;;;;;;;13.30;100.00;102626.97;5085256;28;20016;-70
2023/09/30 08:17:40;;;;;;;37.28;17.13;;;;;;;13.35;100.00;102625.69;5097529;28;20049;-70
2023/09/30 08:20:07;;;;;;;39.80;18.15;;;;;;;13.36;100.00;102622.88;5091785;28;20015;-69
2023/09/30 08:22:33;;;;;;;39.47;18.55;;;;;;;13.45;100.00;102624.66;5098630;28;20110;-69
2023/09/30 08:24:58;;;;;;;44.22;18.65;;;;;;;13.52;100.00;102623.09;5090370;28;20127;-70
2023/09/30 08:27:24;;;;;;;40.75;18.45;;;;;;;13.61;100.00;102619.56;5098362;28;20114;-69
2023/09/30 08:29:49;;;;;;;39.55;18.50;;;;;;;13.66;100.00;102615.59;5082968;28;20396;-69
2023/09/30 08:32:14;;;;;;;39.22;19.40;;;;;;;13.73;100.00;102617.53;5099935;28;20443;-70
2023/09/30 08:34:40;;;;;;;40.35;18.02;;;;;;;13.78;100.00;102612.56;5083131;28;20035;-69
2023/09/30 08:37:05;;;;;;;37.17;17.90;;;;;;;13.83;100.00;102607.63;5095015;28;20503;-69
2023/09/30 08:39:31;;;;;;;37.33;17.85;;;;;;;13.94;100.00;102612.78;5090389;28;20024;-69
2023/09/30 08:41:56;;;;;;;38.63;18.50;;;;;;;14.06;100.00;102607.22;5098018;28;20663;-70
2023/09/30 08:44:22;;;;;;;34.95;16.92;;;;;;;14.13;100.00;102611.81;5093571;28;20028;-69
2023/09/30 08:46:48;;;;;;;37.75;17.42;;;;;;;14.27;100.00;102618.47;5104179;28;20480;-69
2023/09/30 08:49:15;;;;;;;34.70;18.10;;;;;;;14.43;100.00;102613.31;5079624;28;20024;-69
2023/09/30 08:51:40;;;;;;;31.15;16.65;;;;;;;14.52;100.00;102601.72;5093653;28;20692;-69
2023/09/30 08:54:06;;;;;;;33.88;16.60;;;;;;;14.62;100.00;102600.78;5094629;28;20035;-69
2023/09/30 08:56:33;;;;;;;29.15;14.35;;;;;;;14.68;100.00;102602.84;5088314;28;20117;-70
2023/09/30 08:59:00;;;;;;;36.30;15.27;;;;;;;14.73;100.00;102604.06;5077408;28;20142;-69
2023/09/30 09:01:30;;;;;;;29.88;15.30;;;;;;;14.82;100.00;102607.66;5086071;28;20016;-69
2023/09/30 09:03:57;;;;;;;31.77;14.63;;;;;;;14.93;100.00;102615.44;5089722;28;20020;-69
2023/09/30 09:06:23;;;;;;;27.40;14.75;;;;;;;15.06;100.00;102623.91;5086154;28;20027;-69
2023/09/30 09:08:48;;;;;;;31.45;14.50;;;;;;;15.22;100.00;102625.00;5094411;28;20078;-69
2023/09/30 09:11:14;;;;;;;26.77;13.80;;;;;;;15.30;100.00;102625.03;5082185;28;20128;-69
2023/09/30 09:13:55;;;;;;;28.45;14.00;;;;;;;15.40;100.00;102633.81;5086444;28;20024;-69
2023/09/30 09:16:22;;;;;;;26.13;13.75;;;;;;;15.49;100.00;102633.69;5091679;28;20058;-69
2023/09/30 09:18:48;;;;;;;25.88;13.35;;;;;;;15.55;100.00;102637.56;5091687;28;20110;-69
2023/09/30 09:21:19;;;;;;;25.02;14.57;;;;;;;15.61;100.00;102638.78;5084005;28;20047;-69
2023/09/30 09:23:46;;;;;;;24.70;13.68;;;;;;;15.70;100.00;102645.91;5082248;28;20660;-69
2023/09/30 09:26:26;;;;;;;22.05;13.23;;;;;;;15.82;100.00;102643.75;5090828;28;20023;-69
2023/09/30 09:29:00;;;;;;;23.45;12.20;;;;;;;15.94;99.40;102658.56;5083395;28;20058;-69
2023/09/30 09:31:31;;;;;;;28.15;13.52;;;;;;;16.04;98.52;102660.09;5087202;28;20610;-69
2023/09/30 09:33:59;;;;;;;23.17;12.23;;;;;;;16.14;97.45;102669.84;5091970;28;20107;-68
2023/09/30 09:36:45;;;;;;;22.60;13.00;;;;;;;16.19;96.09;102683.59;5082511;28;20073;-70
2023/09/30 09:39:13;;;;;;;25.98;13.50;;;;;;;16.23;95.89;102664.38;5084138;28;20028;-69
2023/09/30 09:41:56;;;;;;;22.23;13.15;;;;;;;16.27;95.24;102671.06;5087051;28;20489;-70
2023/09/30 09:44:22;;;;;;;27.60;13.68;;;;;;;16.40;95.67;102660.69;5085039;28;20028;-69
2023/09/30 09:46:50;;;;;;;31.23;14.38;;;;;;;16.52;95.73;102661.25;5097009;27;20512;-69
2023/09/30 09:49:16;;;;;;;29.02;13.65;;;;;;;16.62;95.91;102672.66;5106915;28;20031;-70
2023/09/30 09:51:45;;;;;;;20.33;10.05;;;;;;;16.61;93.66;102672.81;5090182;28;20031;-69
2023/09/30 09:54:11;;;;;;;20.08;10.23;;;;;;;16.61;91.36;102678.19;5105190;28;20116;-69
2023/09/30 09:56:38;;;;;;;24.33;10.68;;;;;;;16.61;90.73;102679.03;5102597;28;20061;-69
2023/09/30 09:59:04;;;;;;;23.73;12.10;;;;;;;16.65;90.89;102679.53;5084174;28;20017;-69
2023/09/30 10:01:30;;;;;;;26.13;12.00;;;;;;;16.63;89.95;102673.50;5085682;28;20047;-69
2023/09/30 10:03:56;;;;;;;24.83;12.43;;;;;;;16.67;89.81;102667.66;5101998;28;20049;-69
2023/09/30 10:06:22;;;;;;;26.95;13.80;;;;;;;16.71;89.87;102678.88;5095720;28;20059;-69
2023/09/30 10:08:51;;;;;;;24.40;13.07;;;;;;;16.77;89.59;102688.13;5092975;28;20028;-69
2023/09/30 10:11:18;;;;;;;28.52;14.27;;;;;;;16.87;90.82;102686.97;5088377;28;20035;-68
2023/09/30 10:13:55;;;;;;;25.15;13.88;;;;;;;16.95;90.31;102695.00;5090374;28;20482;-69
2023/09/30 10:16:35;;;;;;;25.95;14.02;;;;;;;17.01;90.28;102697.03;5094515;28;20032;-69
2023/09/30 10:19:18;;;;;;;27.13;13.52;;;;;;;17.00;88.72;102697.19;5103078;28;20024;-69
2023/09/30 10:22:18;;;;;;;26.65;13.45;;;;;;;17.02;88.49;102687.97;5087767;28;20023;-70
2023/09/30 10:24:44;;;;;;;29.48;14.23;;;;;;;17.01;88.19;102686.28;5094944;28;20058;-69
2023/09/30 10:27:31;;;;;;;27.27;14.20;;;;;;;17.13;87.76;102683.28;5091369;28;20054;-70
2023/09/30 10:30:15;;;;;;;26.20;14.13;;;;;;;17.16;87.04;102672.19;5077532;28;20028;-69
2023/09/30 10:32:53;;;;;;;28.40;13.95;;;;;;;17.22;86.57;102660.78;5092827;28;20038;-69
2023/09/30 10:35:45;;;;;;;25.25;13.35;;;;;;;17.28;85.90;102647.50;5102507;28;20042;-69
2023/09/30 10:38:22;;;;;;;24.45;13.18;;;;;;;17.39;84.89;102657.06;5099075;28;20528;-69
2023/09/30 10:40:50;;;;;;;27.73;13.65;;;;;;;17.46;85.02;102654.53;5091668;28;20032;-69
2023/09/30 10:43:35;;;;;;;25.27;12.50;;;;;;;17.46;83.89;102647.31;5089713;28;20444;-70
2023/09/30 10:46:01;;;;;;;25.25;13.88;;;;;;;17.51;83.48;102652.16;5091936;28;20084;-70
2023/09/30 10:48:34;;;;;;;28.40;13.35;;;;;;;17.56;83.05;102657.84;5095317;28;20031;-70
2023/09/30 10:51:12;;;;;;;27.02;13.80;;;;;;;17.55;82.17;102651.63;5083085;28;20020;-69
2023/09/30 10:53:45;;;;;;;24.65;12.48;;;;;;;17.56;81.65;102639.03;5086720;28;20070;-68
2023/09/30 10:56:10;;;;;;;26.55;13.32;;;;;;;17.55;81.20;102646.25;5087238;28;20035;-69
2023/09/30 10:58:39;;;;;;;33.15;15.20;;;;;;;17.51;80.97;102634.19;5087388;28;20020;-67
2023/09/30 11:01:05;;;;;;;27.60;15.95;;;;;;;17.61;81.84;102623.25;5086271;28;20020;-69
2023/09/30 11:03:30;;;;;;;23.77;13.95;;;;;;;17.71;82.03;102631.16;5083732;28;20504;-68